Key West, FL (33045)

1:42 PM EDT on June 03, 2015 (GMT -0400)
APRSWXNET | | Change Station
CLOSE
Current Station
Personal Weather Station
Location: Key West, FL
Elevation: 18 ft
Nearby Weather Stations

Elev 18 ft 24.55 °N, 81.79 °W | Updated 1 hour ago

Partly Cloudy
Partly Cloudy
84 °F
Feels Like 91 °F
N
3
Wind Variable Wind from East
Gusts 7.0 mph

Today
High -- | Low -- °F
--% Chance of Precip.
Yesterday
High -- | Low -- °F
Precip. -- in
6:38 AM 8:12 PM
Full, 99% visible
Pressure 29.94 in
Visibility 10.0 miles
Clouds Scattered Clouds 1500 ft
Scattered Clouds 2100 ft
Heat Index 91 °F
Dew Point 74 °F
Humidity 72%
Rainfall in
Snow Depth Not available.
UV 13 out of 12
Pollen .50 out of 12
Air Quality Not available.
Flu Activity Sporadic
METAR KEYW 031653Z 06005KT 10SM SCT015 SCT021 28/23 A2994 RMK AO2 SLP136 T02780233

More Conditions Fewer Conditions

Pressure 29.94 in
Visibility 10.0 miles
Clouds Scattered Clouds 1500 ft
Scattered Clouds 2100 ft
Heat Index 91 °F
Dew Point 74 °F
Humidity 72%
Rainfall in
Snow Depth Not available.
UV 13 out of 12
Pollen .50 out of 12
Air Quality Not available.
Flu Activity Sporadic
METAR KEYW 031653Z 06005KT 10SM SCT015 SCT021 28/23 A2994 RMK AO2 SLP136 T02780233

More Conditions Fewer Conditions

Nowcast | as of 12:45 PM EDT on June 3, 2015

Through 200 PM...a band of showers with isolated thunderstorms will move across Hawk Channel and the Florida Keys from Ocean Reef to Sugar Loaf key...where some locations along this stretch of the islands will receive an additional one third to one half of an inch of rainfall. Elsewhere on the waters...light rain continues across the Bay and nearshore waters to the north...but scattered heavier showers will be concentrated to the south across the Florida Straits from 20 to 50 nm off of the Florida reef. Mariners and motorists in the path of the strongest showers will encounter brief periods of very heavy rainfall accompanied by visibility less than a 1 mile...isolated wind gusts near 30 mph...and occasional lightning strikes. Movement of individual showers continues to the north and northwest near 5 mph.

×

10-Day Weather Forecast

×

Almanac

Astronomy

Jun. 03, 2015 Rise Set
Actual Time
Civil Twilight
Nautical Twilight
Astronomical Twilight
Moon
Length of Visible Light
Length of Day
Tomorrow will be .
, % of the Moon is Illuminated

Today's Extremes

State Highs State Lows

Community

WunderPhotos

Upload Photos

1,826,264 photos uploaded!

WunderBlogs® & News

Nearby

Air Quality

  Air Quality AQ Index Pollutant
Not available.

Snow Depth

Station Depth Elevation

Earthquake Activity

City Distance Mag. Time & Date
Minimum magnitude displayed is 2.5.

Coastal Water Temperatures

Place Temperature

Stations

Nearby Weather Stations

Station Location Temp. Windchill Dew Point Humidity Wind Precip. Elev Updated Type